sensor_id;sensor_type;location;lat;lon;timestamp;temperature;humidity
26687;DHT22;14298;50.900;4.648;2022-12-17T00:00:45;-5.60;97.10
26687;DHT22;14298;50.900;4.648;2022-12-17T00:03:32;-5.60;97.10
26687;DHT22;14298;50.900;4.648;2022-12-17T00:06:19;-5.60;97.10
26687;DHT22;14298;50.900;4.648;2022-12-17T00:09:05;-5.60;97.10
26687;DHT22;14298;50.900;4.648;2022-12-17T00:11:52;-5.70;97.10
26687;DHT22;14298;50.900;4.648;2022-12-17T00:14:38;-5.70;97.10
26687;DHT22;14298;50.900;4.648;2022-12-17T00:17:25;-5.80;97.10
26687;DHT22;14298;50.900;4.648;2022-12-17T00:20:11;-5.70;97.10
26687;DHT22;14298;50.900;4.648;2022-12-17T00:22:59;-5.70;97.10
26687;DHT22;14298;50.900;4.648;2022-12-17T00:25:50;-5.70;97.10
26687;DHT22;14298;50.900;4.648;2022-12-17T00:28:36;-5.60;97.10
26687;DHT22;14298;50.900;4.648;2022-12-17T00:31:25;-5.60;97.10
26687;DHT22;14298;50.900;4.648;2022-12-17T00:34:12;-5.70;97.10
26687;DHT22;14298;50.900;4.648;2022-12-17T00:36:59;-5.70;97.10
26687;DHT22;14298;50.900;4.648;2022-12-17T00:39:45;-5.60;97.10
26687;DHT22;14298;50.900;4.648;2022-12-17T00:42:31;-5.60;97.10
26687;DHT22;14298;50.900;4.648;2022-12-17T00:45:18;-5.60;97.10
26687;DHT22;14298;50.900;4.648;2022-12-17T00:48:04;-5.60;97.10
26687;DHT22;14298;50.900;4.648;2022-12-17T00:50:50;-5.60;97.10
26687;DHT22;14298;50.900;4.648;2022-12-17T00:53:56;-5.60;97.10
26687;DHT22;14298;50.900;4.648;2022-12-17T00:56:42;-5.60;97.10
26687;DHT22;14298;50.900;4.648;2022-12-17T00:59:28;-5.70;97.10
26687;DHT22;14298;50.900;4.648;2022-12-17T01:02:14;-5.70;97.10
26687;DHT22;14298;50.900;4.648;2022-12-17T01:05:05;-5.80;97.10
26687;DHT22;14298;50.900;4.648;2022-12-17T01:07:51;-5.80;97.10
26687;DHT22;14298;50.900;4.648;2022-12-17T01:10:38;-5.90;97.10
26687;DHT22;14298;50.900;4.648;2022-12-17T01:13:24;-5.90;97.10
26687;DHT22;14298;50.900;4.648;2022-12-17T01:16:13;-6.00;97.10
26687;DHT22;14298;50.900;4.648;2022-12-17T01:18:59;-6.00;97.10
26687;DHT22;14298;50.900;4.648;2022-12-17T01:21:46;-6.10;97.10
26687;DHT22;14298;50.900;4.648;2022-12-17T01:24:32;-6.10;97.10
26687;DHT22;14298;50.900;4.648;2022-12-17T01:27:19;-6.10;97.10
26687;DHT22;14298;50.900;4.648;2022-12-17T01:30:06;-6.00;97.10
26687;DHT22;14298;50.900;4.648;2022-12-17T01:32:59;-5.90;97.10
26687;DHT22;14298;50.900;4.648;2022-12-17T01:35:40;-6.00;97.10
26687;DHT22;14298;50.900;4.648;2022-12-17T01:38:26;-6.10;97.10
26687;DHT22;14298;50.900;4.648;2022-12-17T01:41:13;-6.10;97.10
26687;DHT22;14298;50.900;4.648;2022-12-17T01:44:28;-6.20;97.10
26687;DHT22;14298;50.900;4.648;2022-12-17T01:46:49;-6.20;97.10
26687;DHT22;14298;50.900;4.648;2022-12-17T01:49:35;-6.10;97.10
26687;DHT22;14298;50.900;4.648;2022-12-17T01:52:17;-6.10;97.10
26687;DHT22;14298;50.900;4.648;2022-12-17T01:55:05;-5.90;97.10
26687;DHT22;14298;50.900;4.648;2022-12-17T01:57:52;-5.80;97.10
26687;DHT22;14298;50.900;4.648;2022-12-17T02:00:38;-5.80;97.10
26687;DHT22;14298;50.900;4.648;2022-12-17T02:03:13;-5.90;97.10
26687;DHT22;14298;50.900;4.648;2022-12-17T02:07:10;-5.90;97.10
26687;DHT22;14298;50.900;4.648;2022-12-17T02:09:11;-6.00;97.10
26687;DHT22;14298;50.900;4.648;2022-12-17T02:12:00;-6.10;97.10
26687;DHT22;14298;50.900;4.648;2022-12-17T02:14:47;-6.10;97.10
26687;DHT22;14298;50.900;4.648;2022-12-17T02:17:39;-6.20;97.10
26687;DHT22;14298;50.900;4.648;2022-12-17T02:20:29;-6.20;97.10
26687;DHT22;14298;50.900;4.648;2022-12-17T02:26:36;-6.20;97.10
26687;DHT22;14298;50.900;4.648;2022-12-17T02:29:25;-6.20;97.10
26687;DHT22;14298;50.900;4.648;2022-12-17T02:32:14;-6.30;97.10
26687;DHT22;14298;50.900;4.648;2022-12-17T02:35:01;-6.30;97.10
26687;DHT22;14298;50.900;4.648;2022-12-17T02:37:49;-6.30;97.10
26687;DHT22;14298;50.900;4.648;2022-12-17T02:40:36;-6.40;97.10
26687;DHT22;14298;50.900;4.648;2022-12-17T02:43:24;-6.40;97.10
26687;DHT22;14298;50.900;4.648;2022-12-17T02:46:12;-6.40;97.10
26687;DHT22;14298;50.900;4.648;2022-12-17T02:48:59;-6.40;97.10
26687;DHT22;14298;50.900;4.648;2022-12-17T02:51:46;-6.40;97.10
26687;DHT22;14298;50.900;4.648;2022-12-17T02:54:32;-6.30;97.10
26687;DHT22;14298;50.900;4.648;2022-12-17T02:57:15;-6.40;97.10
26687;DHT22;14298;50.900;4.648;2022-12-17T03:00:01;-6.40;97.10
26687;DHT22;14298;50.900;4.648;2022-12-17T03:02:34;-6.40;97.10
26687;DHT22;14298;50.900;4.648;2022-12-17T03:05:20;-6.50;97.10
26687;DHT22;14298;50.900;4.648;2022-12-17T03:08:26;-6.50;97.10
26687;DHT22;14298;50.900;4.648;2022-12-17T03:11:14;-6.60;97.10
26687;DHT22;14298;50.900;4.648;2022-12-17T03:14:01;-6.60;97.10
26687;DHT22;14298;50.900;4.648;2022-12-17T03:16:47;-6.60;97.10
26687;DHT22;14298;50.900;4.648;2022-12-17T03:19:33;-6.60;97.10
26687;DHT22;14298;50.900;4.648;2022-12-17T03:22:20;-6.60;97.10
26687;DHT22;14298;50.900;4.648;2022-12-17T03:25:06;-6.60;97.10
26687;DHT22;14298;50.900;4.648;2022-12-17T03:27:53;-6.60;97.10
26687;DHT22;14298;50.900;4.648;2022-12-17T03:30:39;-6.70;97.10
26687;DHT22;14298;50.900;4.648;2022-12-17T03:33:26;-6.70;97.10
26687;DHT22;14298;50.900;4.648;2022-12-17T03:36:12;-6.60;97.10
26687;DHT22;14298;50.900;4.648;2022-12-17T03:38:59;-6.50;97.10
26687;DHT22;14298;50.900;4.648;2022-12-17T03:41:45;-6.40;97.10
26687;DHT22;14298;50.900;4.648;2022-12-17T03:44:31;-6.40;97.10
26687;DHT22;14298;50.900;4.648;2022-12-17T03:47:17;-6.30;97.10
26687;DHT22;14298;50.900;4.648;2022-12-17T03:50:04;-6.30;97.10
26687;DHT22;14298;50.900;4.648;2022-12-17T03:52:51;-6.30;97.10
26687;DHT22;14298;50.900;4.648;2022-12-17T03:55:37;-6.30;97.10
26687;DHT22;14298;50.900;4.648;2022-12-17T03:58:23;-6.30;97.10
26687;DHT22;14298;50.900;4.648;2022-12-17T04:01:10;-6.40;97.10
26687;DHT22;14298;50.900;4.648;2022-12-17T04:03:56;-6.30;97.10
26687;DHT22;14298;50.900;4.648;2022-12-17T04:06:43;-6.40;97.10
26687;DHT22;14298;50.900;4.648;2022-12-17T04:09:29;-6.50;97.10
26687;DHT22;14298;50.900;4.648;2022-12-17T04:12:15;-6.50;97.10
26687;DHT22;14298;50.900;4.648;2022-12-17T04:15:02;-6.60;97.10
26687;DHT22;14298;50.900;4.648;2022-12-17T04:17:48;-6.60;97.10
26687;DHT22;14298;50.900;4.648;2022-12-17T04:20:34;-6.60;97.10
26687;DHT22;14298;50.900;4.648;2022-12-17T04:23:21;-6.70;97.10
26687;DHT22;14298;50.900;4.648;2022-12-17T04:26:08;-6.70;97.10
26687;DHT22;14298;50.900;4.648;2022-12-17T04:28:54;-6.60;97.10
26687;DHT22;14298;50.900;4.648;2022-12-17T04:31:40;-6.60;97.10
26687;DHT22;14298;50.900;4.648;2022-12-17T04:34:27;-6.70;97.10
26687;DHT22;14298;50.900;4.648;2022-12-17T04:37:13;-6.70;97.10
26687;DHT22;14298;50.900;4.648;2022-12-17T04:39:59;-6.60;97.10
26687;DHT22;14298;50.900;4.648;2022-12-17T04:42:46;-6.60;97.10
26687;DHT22;14298;50.900;4.648;2022-12-17T04:45:32;-6.70;97.10
26687;DHT22;14298;50.900;4.648;2022-12-17T04:48:19;-6.70;97.10
26687;DHT22;14298;50.900;4.648;2022-12-17T04:51:05;-6.60;97.10
26687;DHT22;14298;50.900;4.648;2022-12-17T04:56:36;-6.60;97.10
26687;DHT22;14298;50.900;4.648;2022-12-17T04:59:23;-6.70;97.10
26687;DHT22;14298;50.900;4.648;2022-12-17T05:02:09;-6.70;97.10
26687;DHT22;14298;50.900;4.648;2022-12-17T05:04:56;-6.70;97.10
26687;DHT22;14298;50.900;4.648;2022-12-17T05:07:42;-6.70;97.10
26687;DHT22;14298;50.900;4.648;2022-12-17T05:10:29;-6.60;97.10
26687;DHT22;14298;50.900;4.648;2022-12-17T05:13:15;-6.60;97.10
26687;DHT22;14298;50.900;4.648;2022-12-17T05:16:01;-6.60;97.10
26687;DHT22;14298;50.900;4.648;2022-12-17T05:18:47;-6.60;97.10
26687;DHT22;14298;50.900;4.648;2022-12-17T05:21:34;-6.70;97.10
26687;DHT22;14298;50.900;4.648;2022-12-17T05:24:20;-6.70;97.10
26687;DHT22;14298;50.900;4.648;2022-12-17T05:27:07;-6.70;97.10
26687;DHT22;14298;50.900;4.648;2022-12-17T05:29:53;-6.80;97.10
26687;DHT22;14298;50.900;4.648;2022-12-17T05:32:59;-6.70;97.10
26687;DHT22;14298;50.900;4.648;2022-12-17T05:35:46;-6.40;97.10
26687;DHT22;14298;50.900;4.648;2022-12-17T05:38:32;-6.20;97.10
26687;DHT22;14298;50.900;4.648;2022-12-17T05:41:18;-6.00;97.10
26687;DHT22;14298;50.900;4.648;2022-12-17T05:44:05;-5.90;97.10
26687;DHT22;14298;50.900;4.648;2022-12-17T05:46:51;-5.90;97.10
26687;DHT22;14298;50.900;4.648;2022-12-17T05:49:38;-5.80;97.10
26687;DHT22;14298;50.900;4.648;2022-12-17T05:52:24;-5.70;97.10
26687;DHT22;14298;50.900;4.648;2022-12-17T05:55:11;-5.60;97.10
26687;DHT22;14298;50.900;4.648;2022-12-17T05:58:07;-5.40;97.10
26687;DHT22;14298;50.900;4.648;2022-12-17T06:00:58;-5.40;97.10
26687;DHT22;14298;50.900;4.648;2022-12-17T06:03:45;-5.30;97.10
26687;DHT22;14298;50.900;4.648;2022-12-17T06:06:32;-5.30;97.10
26687;DHT22;14298;50.900;4.648;2022-12-17T06:09:18;-5.30;97.10
26687;DHT22;14298;50.900;4.648;2022-12-17T06:12:04;-5.30;97.10
26687;DHT22;14298;50.900;4.648;2022-12-17T06:14:51;-5.20;97.10
26687;DHT22;14298;50.900;4.648;2022-12-17T06:17:38;-5.20;97.10
26687;DHT22;14298;50.900;4.648;2022-12-17T06:20:24;-5.20;97.10
26687;DHT22;14298;50.900;4.648;2022-12-17T06:23:10;-5.20;97.10
26687;DHT22;14298;50.900;4.648;2022-12-17T06:25:57;-5.20;97.10
26687;DHT22;14298;50.900;4.648;2022-12-17T06:28:43;-5.20;97.10
26687;DHT22;14298;50.900;4.648;2022-12-17T06:31:29;-5.30;97.10
26687;DHT22;14298;50.900;4.648;2022-12-17T06:34:15;-5.30;97.10
26687;DHT22;14298;50.900;4.648;2022-12-17T06:37:02;-5.30;97.10
26687;DHT22;14298;50.900;4.648;2022-12-17T06:39:48;-5.30;97.10
26687;DHT22;14298;50.900;4.648;2022-12-17T06:42:35;-5.20;97.10
26687;DHT22;14298;50.900;4.648;2022-12-17T06:45:21;-5.10;97.10
26687;DHT22;14298;50.900;4.648;2022-12-17T06:48:10;-5.10;97.10
26687;DHT22;14298;50.900;4.648;2022-12-17T06:51:01;-5.10;97.10
26687;DHT22;14298;50.900;4.648;2022-12-17T06:53:45;-5.10;97.10
26687;DHT22;14298;50.900;4.648;2022-12-17T06:56:31;-5.10;97.10
26687;DHT22;14298;50.900;4.648;2022-12-17T06:59:18;-5.10;97.10
26687;DHT22;14298;50.900;4.648;2022-12-17T07:02:04;-5.20;97.10
26687;DHT22;14298;50.900;4.648;2022-12-17T07:04:52;-5.20;97.10
26687;DHT22;14298;50.900;4.648;2022-12-17T07:07:38;-5.30;97.10
26687;DHT22;14298;50.900;4.648;2022-12-17T07:10:25;-5.30;97.10
26687;DHT22;14298;50.900;4.648;2022-12-17T07:13:11;-5.30;97.10
26687;DHT22;14298;50.900;4.648;2022-12-17T07:15:58;-5.40;97.10
26687;DHT22;14298;50.900;4.648;2022-12-17T07:18:44;-5.50;97.10
26687;DHT22;14298;50.900;4.648;2022-12-17T07:21:30;-5.60;97.10
26687;DHT22;14298;50.900;4.648;2022-12-17T07:24:17;-5.60;97.10
26687;DHT22;14298;50.900;4.648;2022-12-17T07:27:03;-5.60;97.10
26687;DHT22;14298;50.900;4.648;2022-12-17T07:29:49;-5.50;97.10
26687;DHT22;14298;50.900;4.648;2022-12-17T07:32:35;-5.40;97.10
26687;DHT22;14298;50.900;4.648;2022-12-17T07:35:22;-5.40;97.10
26687;DHT22;14298;50.900;4.648;2022-12-17T07:38:10;-5.40;97.10
26687;DHT22;14298;50.900;4.648;2022-12-17T07:40:58;-5.40;97.10
26687;DHT22;14298;50.900;4.648;2022-12-17T07:43:44;-5.50;97.10
26687;DHT22;14298;50.900;4.648;2022-12-17T07:46:30;-5.50;97.10
26687;DHT22;14298;50.900;4.648;2022-12-17T07:49:16;-5.50;97.10
26687;DHT22;14298;50.900;4.648;2022-12-17T07:52:03;-5.50;97.10
26687;DHT22;14298;50.900;4.648;2022-12-17T07:54:49;-5.50;97.10
26687;DHT22;14298;50.900;4.648;2022-12-17T07:57:35;-5.50;97.10
26687;DHT22;14298;50.900;4.648;2022-12-17T08:00:21;-5.50;97.10
26687;DHT22;14298;50.900;4.648;2022-12-17T08:02:58;-5.50;97.10
26687;DHT22;14298;50.900;4.648;2022-12-17T08:05:45;-5.50;97.10
26687;DHT22;14298;50.900;4.648;2022-12-17T08:08:51;-5.50;97.10
26687;DHT22;14298;50.900;4.648;2022-12-17T08:11:37;-5.60;97.10
26687;DHT22;14298;50.900;4.648;2022-12-17T08:14:23;-5.50;97.10
26687;DHT22;14298;50.900;4.648;2022-12-17T08:17:09;-5.50;97.10
26687;DHT22;14298;50.900;4.648;2022-12-17T08:19:56;-5.50;97.10
26687;DHT22;14298;50.900;4.648;2022-12-17T08:22:42;-5.50;97.10
26687;DHT22;14298;50.900;4.648;2022-12-17T08:25:29;-5.60;97.10
26687;DHT22;14298;50.900;4.648;2022-12-17T08:28:15;-5.50;97.10
26687;DHT22;14298;50.900;4.648;2022-12-17T08:31:01;-5.30;97.10
26687;DHT22;14298;50.900;4.648;2022-12-17T08:33:48;-5.00;97.10
26687;DHT22;14298;50.900;4.648;2022-12-17T08:36:34;-4.70;97.10
26687;DHT22;14298;50.900;4.648;2022-12-17T08:39:20;-4.50;97.10
26687;DHT22;14298;50.900;4.648;2022-12-17T08:42:07;-4.50;97.10
26687;DHT22;14298;50.900;4.648;2022-12-17T08:44:53;-4.50;97.10
26687;DHT22;14298;50.900;4.648;2022-12-17T08:47:40;-4.50;97.10
26687;DHT22;14298;50.900;4.648;2022-12-17T08:50:26;-4.40;97.10
26687;DHT22;14298;50.900;4.648;2022-12-17T08:53:12;-4.00;97.10
26687;DHT22;14298;50.900;4.648;2022-12-17T08:55:59;-3.20;97.10
26687;DHT22;14298;50.900;4.648;2022-12-17T08:58:45;-2.90;97.10
26687;DHT22;14298;50.900;4.648;2022-12-17T09:01:31;-2.70;97.10
26687;DHT22;14298;50.900;4.648;2022-12-17T09:04:17;-2.60;97.10
26687;DHT22;14298;50.900;4.648;2022-12-17T09:07:04;-2.70;97.10
26687;DHT22;14298;50.900;4.648;2022-12-17T09:09:50;-3.10;97.10
26687;DHT22;14298;50.900;4.648;2022-12-17T09:12:36;-3.80;97.10
26687;DHT22;14298;50.900;4.648;2022-12-17T09:15:22;-4.20;97.10
26687;DHT22;14298;50.900;4.648;2022-12-17T09:18:09;-4.40;97.10
26687;DHT22;14298;50.900;4.648;2022-12-17T09:20:55;-4.60;97.10
26687;DHT22;14298;50.900;4.648;2022-12-17T09:23:42;-4.60;97.10
26687;DHT22;14298;50.900;4.648;2022-12-17T09:26:28;-4.70;97.10
26687;DHT22;14298;50.900;4.648;2022-12-17T09:29:15;-4.80;97.10
26687;DHT22;14298;50.900;4.648;2022-12-17T09:32:01;-4.80;97.10
26687;DHT22;14298;50.900;4.648;2022-12-17T09:34:47;-4.90;97.10
26687;DHT22;14298;50.900;4.648;2022-12-17T09:37:34;-5.00;97.10
26687;DHT22;14298;50.900;4.648;2022-12-17T09:40:22;-5.10;97.10
26687;DHT22;14298;50.900;4.648;2022-12-17T09:43:30;-5.10;97.10
26687;DHT22;14298;50.900;4.648;2022-12-17T09:46:19;-5.10;97.10
26687;DHT22;14298;50.900;4.648;2022-12-17T09:49:17;-5.10;97.10
26687;DHT22;14298;50.900;4.648;2022-12-17T09:55:24;-5.10;97.10
26687;DHT22;14298;50.900;4.648;2022-12-17T09:58:20;-5.00;97.10
26687;DHT22;14298;50.900;4.648;2022-12-17T10:01:14;-4.80;97.10
26687;DHT22;14298;50.900;4.648;2022-12-17T10:04:11;-4.90;97.10
26687;DHT22;14298;50.900;4.648;2022-12-17T10:06:57;-4.80;97.10
26687;DHT22;14298;50.900;4.648;2022-12-17T10:09:45;-4.70;97.10
26687;DHT22;14298;50.900;4.648;2022-12-17T10:12:33;-4.50;97.10
26687;DHT22;14298;50.900;4.648;2022-12-17T10:15:19;-4.40;97.10
26687;DHT22;14298;50.900;4.648;2022-12-17T10:18:08;-4.20;97.10
26687;DHT22;14298;50.900;4.648;2022-12-17T10:20:56;-4.20;97.10
26687;DHT22;14298;50.900;4.648;2022-12-17T10:23:43;-4.00;97.10
26687;DHT22;14298;50.900;4.648;2022-12-17T10:26:32;-3.80;97.10
26687;DHT22;14298;50.900;4.648;2022-12-17T10:29:24;-3.80;97.10
26687;DHT22;14298;50.900;4.648;2022-12-17T10:35:10;-3.80;97.10
26687;DHT22;14298;50.900;4.648;2022-12-17T10:37:55;-3.70;97.10
26687;DHT22;14298;50.900;4.648;2022-12-17T10:40:41;-3.70;97.10
26687;DHT22;14298;50.900;4.648;2022-12-17T10:43:36;-3.50;97.10
26687;DHT22;14298;50.900;4.648;2022-12-17T10:46:28;-3.40;97.10
26687;DHT22;14298;50.900;4.648;2022-12-17T10:49:20;-3.30;97.10
26687;DHT22;14298;50.900;4.648;2022-12-17T10:52:18;-3.10;97.10
26687;DHT22;14298;50.900;4.648;2022-12-17T10:55:03;-2.90;97.10
26687;DHT22;14298;50.900;4.648;2022-12-17T10:57:51;-3.00;97.10
26687;DHT22;14298;50.900;4.648;2022-12-17T11:00:39;-3.10;97.10
26687;DHT22;14298;50.900;4.648;2022-12-17T11:03:28;-3.10;97.10
26687;DHT22;14298;50.900;4.648;2022-12-17T11:06:24;-3.20;97.10
26687;DHT22;14298;50.900;4.648;2022-12-17T11:09:59;-3.20;97.10
26687;DHT22;14298;50.900;4.648;2022-12-17T11:12:01;-3.30;97.10
26687;DHT22;14298;50.900;4.648;2022-12-17T11:14:51;-3.30;97.10
26687;DHT22;14298;50.900;4.648;2022-12-17T11:17:39;-3.20;97.10
26687;DHT22;14298;50.900;4.648;2022-12-17T11:20:47;-3.20;97.10
26687;DHT22;14298;50.900;4.648;2022-12-17T11:23:37;-3.20;97.10
26687;DHT22;14298;50.900;4.648;2022-12-17T11:26:26;-3.10;97.10
26687;DHT22;14298;50.900;4.648;2022-12-17T11:29:13;-3.00;97.10
26687;DHT22;14298;50.900;4.648;2022-12-17T11:35:22;-2.80;97.10
26687;DHT22;14298;50.900;4.648;2022-12-17T11:38:28;-2.70;97.10
26687;DHT22;14298;50.900;4.648;2022-12-17T11:41:58;-2.60;97.10
26687;DHT22;14298;50.900;4.648;2022-12-17T11:47:17;-2.50;97.10
26687;DHT22;14298;50.900;4.648;2022-12-17T11:55:57;-2.20;97.10
26687;DHT22;14298;50.900;4.648;2022-12-17T11:58:56;-2.00;97.10
26687;DHT22;14298;50.900;4.648;2022-12-17T12:02:08;-2.00;97.10
26687;DHT22;14298;50.900;4.648;2022-12-17T12:05:09;-2.00;97.10
26687;DHT22;14298;50.900;4.648;2022-12-17T12:08:03;-1.90;97.10
26687;DHT22;14298;50.900;4.648;2022-12-17T12:26:58;-1.90;97.10
26687;DHT22;14298;50.900;4.648;2022-12-17T12:33:02;-2.00;97.10
26687;DHT22;14298;50.900;4.648;2022-12-17T12:36:07;-2.10;97.10
26687;DHT22;14298;50.900;4.648;2022-12-17T12:38:55;-1.90;97.10
26687;DHT22;14298;50.900;4.648;2022-12-17T12:42:03;-1.90;97.10
26687;DHT22;14298;50.900;4.648;2022-12-17T12:45:00;-1.70;97.10
26687;DHT22;14298;50.900;4.648;2022-12-17T12:48:52;-1.60;97.10
26687;DHT22;14298;50.900;4.648;2022-12-17T12:51:02;-1.70;97.10
26687;DHT22;14298;50.900;4.648;2022-12-17T12:53:59;-1.70;97.10
26687;DHT22;14298;50.900;4.648;2022-12-17T12:56:46;-1.80;97.10
26687;DHT22;14298;50.900;4.648;2022-12-17T12:59:33;-1.80;97.10
26687;DHT22;14298;50.900;4.648;2022-12-17T13:02:26;-1.70;97.10
26687;DHT22;14298;50.900;4.648;2022-12-17T13:05:21;-1.50;97.10
26687;DHT22;14298;50.900;4.648;2022-12-17T13:10:39;-1.40;97.10
26687;DHT22;14298;50.900;4.648;2022-12-17T13:15:45;-1.60;97.10
26687;DHT22;14298;50.900;4.648;2022-12-17T13:21:00;-1.70;97.10
26687;DHT22;14298;50.900;4.648;2022-12-17T13:23:32;-1.60;97.10
26687;DHT22;14298;50.900;4.648;2022-12-17T13:28:42;-1.60;97.10
26687;DHT22;14298;50.900;4.648;2022-12-17T13:31:17;-1.70;97.10
26687;DHT22;14298;50.900;4.648;2022-12-17T13:41:30;-1.80;97.10
26687;DHT22;14298;50.900;4.648;2022-12-17T13:44:23;-1.80;97.10
26687;DHT22;14298;50.900;4.648;2022-12-17T13:46:44;-2.00;97.10
26687;DHT22;14298;50.900;4.648;2022-12-17T13:49:33;-2.00;97.10
26687;DHT22;14298;50.900;4.648;2022-12-17T13:52:18;-2.00;97.10
26687;DHT22;14298;50.900;4.648;2022-12-17T13:54:47;-1.90;97.10
26687;DHT22;14298;50.900;4.648;2022-12-17T13:57:18;-2.00;97.10
26687;DHT22;14298;50.900;4.648;2022-12-17T14:02:42;-2.00;97.10
26687;DHT22;14298;50.900;4.648;2022-12-17T14:05:31;-2.10;97.10
26687;DHT22;14298;50.900;4.648;2022-12-17T14:08:02;-2.10;97.10
26687;DHT22;14298;50.900;4.648;2022-12-17T14:10:31;-2.10;97.10
26687;DHT22;14298;50.900;4.648;2022-12-17T14:13:08;-2.00;97.10
26687;DHT22;14298;50.900;4.648;2022-12-17T14:15:38;-2.00;97.10
26687;DHT22;14298;50.900;4.648;2022-12-17T14:18:11;-2.00;97.10
26687;DHT22;14298;50.900;4.648;2022-12-17T14:20:39;-2.00;97.10
26687;DHT22;14298;50.900;4.648;2022-12-17T14:25:48;-2.00;97.10
26687;DHT22;14298;50.900;4.648;2022-12-17T14:28:31;-2.00;97.10
26687;DHT22;14298;50.900;4.648;2022-12-17T14:33:44;-2.00;97.10
26687;DHT22;14298;50.900;4.648;2022-12-17T14:36:20;-2.00;97.10
26687;DHT22;14298;50.900;4.648;2022-12-17T14:38:55;-2.10;97.10
26687;DHT22;14298;50.900;4.648;2022-12-17T14:41:24;-2.10;97.10
26687;DHT22;14298;50.900;4.648;2022-12-17T14:44:22;-2.10;97.10
26687;DHT22;14298;50.900;4.648;2022-12-17T14:46:54;-2.10;97.10
26687;DHT22;14298;50.900;4.648;2022-12-17T14:49:22;-2.10;97.10
26687;DHT22;14298;50.900;4.648;2022-12-17T14:51:50;-2.10;97.10
26687;DHT22;14298;50.900;4.648;2022-12-17T14:54:27;-2.20;97.10
26687;DHT22;14298;50.900;4.648;2022-12-17T14:56:58;-2.20;97.10
26687;DHT22;14298;50.900;4.648;2022-12-17T14:59:32;-2.20;97.10
26687;DHT22;14298;50.900;4.648;2022-12-17T15:04:38;-2.20;97.10
26687;DHT22;14298;50.900;4.648;2022-12-17T15:07:07;-2.30;97.10
26687;DHT22;14298;50.900;4.648;2022-12-17T15:09:56;-2.30;97.10
26687;DHT22;14298;50.900;4.648;2022-12-17T15:12:27;-2.30;97.10
26687;DHT22;14298;50.900;4.648;2022-12-17T15:14:55;-2.40;97.10
26687;DHT22;14298;50.900;4.648;2022-12-17T15:17:24;-2.40;97.10
26687;DHT22;14298;50.900;4.648;2022-12-17T15:19:52;-2.40;97.10
26687;DHT22;14298;50.900;4.648;2022-12-17T15:22:21;-2.40;97.10
26687;DHT22;14298;50.900;4.648;2022-12-17T15:24:50;-2.40;97.10
26687;DHT22;14298;50.900;4.648;2022-12-17T15:27:18;-2.40;97.10
26687;DHT22;14298;50.900;4.648;2022-12-17T15:29:47;-2.40;97.10
26687;DHT22;14298;50.900;4.648;2022-12-17T15:32:20;-2.40;97.10
26687;DHT22;14298;50.900;4.648;2022-12-17T15:34:49;-2.40;97.10
26687;DHT22;14298;50.900;4.648;2022-12-17T15:37:18;-2.50;97.10
26687;DHT22;14298;50.900;4.648;2022-12-17T15:39:46;-2.40;97.10
26687;DHT22;14298;50.900;4.648;2022-12-17T15:42:14;-2.40;97.10
26687;DHT22;14298;50.900;4.648;2022-12-17T15:45:01;-2.50;97.10
26687;DHT22;14298;50.900;4.648;2022-12-17T15:47:29;-2.50;97.10
26687;DHT22;14298;50.900;4.648;2022-12-17T15:49:57;-2.50;97.10
26687;DHT22;14298;50.900;4.648;2022-12-17T15:52:26;-2.60;97.10
26687;DHT22;14298;50.900;4.648;2022-12-17T15:54:54;-2.60;97.10
26687;DHT22;14298;50.900;4.648;2022-12-17T15:57:22;-2.60;97.10
26687;DHT22;14298;50.900;4.648;2022-12-17T15:59:51;-2.60;97.10
26687;DHT22;14298;50.900;4.648;2022-12-17T16:02:19;-2.60;97.10
26687;DHT22;14298;50.900;4.648;2022-12-17T16:04:47;-2.70;97.10
26687;DHT22;14298;50.900;4.648;2022-12-17T16:07:16;-2.70;97.10
26687;DHT22;14298;50.900;4.648;2022-12-17T16:09:44;-2.60;97.10
26687;DHT22;14298;50.900;4.648;2022-12-17T16:12:12;-2.60;97.10
26687;DHT22;14298;50.900;4.648;2022-12-17T16:14:41;-2.60;97.10
26687;DHT22;14298;50.900;4.648;2022-12-17T16:17:09;-2.60;97.10
26687;DHT22;14298;50.900;4.648;2022-12-17T16:19:37;-2.70;97.10
26687;DHT22;14298;50.900;4.648;2022-12-17T16:22:06;-2.70;97.10
26687;DHT22;14298;50.900;4.648;2022-12-17T16:24:34;-2.70;97.10
26687;DHT22;14298;50.900;4.648;2022-12-17T16:27:03;-2.70;97.10
26687;DHT22;14298;50.900;4.648;2022-12-17T16:29:31;-2.80;97.10
26687;DHT22;14298;50.900;4.648;2022-12-17T16:32:00;-2.80;97.10
26687;DHT22;14298;50.900;4.648;2022-12-17T16:34:28;-2.80;97.10
26687;DHT22;14298;50.900;4.648;2022-12-17T16:36:57;-2.80;97.10
26687;DHT22;14298;50.900;4.648;2022-12-17T16:39:27;-2.90;97.10
26687;DHT22;14298;50.900;4.648;2022-12-17T16:41:55;-2.90;97.10
26687;DHT22;14298;50.900;4.648;2022-12-17T16:44:23;-3.00;97.10
26687;DHT22;14298;50.900;4.648;2022-12-17T16:46:52;-2.90;97.10
26687;DHT22;14298;50.900;4.648;2022-12-17T16:49:22;-2.90;97.10
26687;DHT22;14298;50.900;4.648;2022-12-17T16:51:52;-3.00;97.10
26687;DHT22;14298;50.900;4.648;2022-12-17T16:54:22;-2.90;97.10
26687;DHT22;14298;50.900;4.648;2022-12-17T16:56:52;-2.90;97.10
26687;DHT22;14298;50.900;4.648;2022-12-17T16:59:21;-2.90;97.10
26687;DHT22;14298;50.900;4.648;2022-12-17T17:01:50;-2.90;97.10
26687;DHT22;14298;50.900;4.648;2022-12-17T17:04:21;-2.90;97.10
26687;DHT22;14298;50.900;4.648;2022-12-17T17:06:57;-2.90;97.10
26687;DHT22;14298;50.900;4.648;2022-12-17T17:09:22;-2.90;97.10
26687;DHT22;14298;50.900;4.648;2022-12-17T17:11:55;-3.00;97.10
26687;DHT22;14298;50.900;4.648;2022-12-17T17:14:25;-3.10;97.10
26687;DHT22;14298;50.900;4.648;2022-12-17T17:16:54;-3.10;97.10
26687;DHT22;14298;50.900;4.648;2022-12-17T17:19:22;-3.10;97.10
26687;DHT22;14298;50.900;4.648;2022-12-17T17:21:52;-3.10;97.10
26687;DHT22;14298;50.900;4.648;2022-12-17T17:24:22;-3.20;97.10
26687;DHT22;14298;50.900;4.648;2022-12-17T17:26:53;-3.20;97.10
26687;DHT22;14298;50.900;4.648;2022-12-17T17:29:22;-3.30;97.10
26687;DHT22;14298;50.900;4.648;2022-12-17T17:31:50;-3.30;97.10
26687;DHT22;14298;50.900;4.648;2022-12-17T17:34:18;-3.30;97.10
26687;DHT22;14298;50.900;4.648;2022-12-17T17:36:47;-3.40;97.10
26687;DHT22;14298;50.900;4.648;2022-12-17T17:39:15;-3.40;97.10
26687;DHT22;14298;50.900;4.648;2022-12-17T17:41:44;-3.30;97.10
26687;DHT22;14298;50.900;4.648;2022-12-17T17:44:13;-3.30;97.10
26687;DHT22;14298;50.900;4.648;2022-12-17T17:46:41;-3.40;97.10
26687;DHT22;14298;50.900;4.648;2022-12-17T17:49:10;-3.40;97.10
26687;DHT22;14298;50.900;4.648;2022-12-17T17:51:41;-3.40;97.10
26687;DHT22;14298;50.900;4.648;2022-12-17T17:54:09;-3.40;97.10
26687;DHT22;14298;50.900;4.648;2022-12-17T17:56:40;-3.40;97.10
26687;DHT22;14298;50.900;4.648;2022-12-17T17:59:11;-3.40;97.10
26687;DHT22;14298;50.900;4.648;2022-12-17T18:01:42;-3.40;97.10
26687;DHT22;14298;50.900;4.648;2022-12-17T18:04:13;-3.40;97.10
26687;DHT22;14298;50.900;4.648;2022-12-17T18:06:43;-3.40;97.10
26687;DHT22;14298;50.900;4.648;2022-12-17T18:09:13;-3.40;97.10
26687;DHT22;14298;50.900;4.648;2022-12-17T18:11:42;-3.40;97.10
26687;DHT22;14298;50.900;4.648;2022-12-17T18:14:12;-3.30;97.10
26687;DHT22;14298;50.900;4.648;2022-12-17T18:16:44;-3.30;97.10
26687;DHT22;14298;50.900;4.648;2022-12-17T18:19:14;-3.30;97.10
26687;DHT22;14298;50.900;4.648;2022-12-17T18:21:43;-3.40;97.10